createdAt,value
2018-04-08T00:00:05.626Z,77.70
2018-04-08T00:01:11.952Z,39.75
2018-04-08T00:02:18.375Z,24.70
2018-04-08T00:03:27.150Z,26.23
2018-04-08T00:04:34.035Z,27.10
2018-04-08T00:05:40.224Z,28.08
2018-04-08T00:06:47.748Z,19.35
2018-04-08T00:07:54.538Z,34.80
2018-04-08T00:09:01.781Z,19.92
2018-04-08T00:10:08.411Z,25.17
2018-04-08T00:11:15.470Z,18.27
2018-04-08T00:12:24.915Z,15.15
2018-04-08T00:13:32.685Z,18.33
2018-04-08T00:14:39.135Z,28.08
2018-04-08T00:15:45.310Z,17.15
2018-04-08T00:16:52.734Z,19.15
2018-04-08T00:17:58.987Z,17.52
2018-04-08T00:19:05.360Z,17.80
2018-04-08T00:20:13.485Z,11.48
2018-04-08T00:21:21.886Z,11.60
2018-04-08T00:22:28.821Z,8.45
2018-04-08T00:23:36.062Z,11.00
2018-04-08T00:24:44.668Z,12.88
2018-04-08T00:25:50.776Z,17.12
2018-04-08T00:26:57.604Z,21.67
2018-04-08T00:28:04.172Z,24.37
2018-04-08T00:29:10.426Z,14.30
2018-04-08T00:30:16.852Z,23.62
2018-04-08T00:31:23.492Z,41.80
2018-04-08T00:32:29.656Z,21.80
2018-04-08T00:33:36.166Z,19.30
2018-04-08T00:34:43.573Z,29.50
2018-04-08T00:35:50.371Z,23.75
2018-04-08T00:36:57.218Z,23.60
2018-04-08T00:38:03.863Z,19.00
2018-04-08T00:39:11.733Z,16.00
2018-04-08T00:40:18.366Z,19.27
2018-04-08T00:41:24.571Z,32.33
2018-04-08T00:42:32.632Z,41.65
2018-04-08T00:43:39.206Z,41.20
2018-04-08T00:44:45.515Z,46.25
2018-04-08T00:45:52.321Z,25.42
2018-04-08T00:46:58.602Z,17.30
2018-04-08T00:48:04.941Z,45.67
2018-04-08T00:49:12.040Z,19.40
2018-04-08T00:50:20.855Z,15.15
2018-04-08T00:51:29.031Z,65.70
2018-04-08T00:52:36.441Z,46.83
2018-04-08T00:53:42.869Z,32.17
2018-04-08T00:54:50.099Z,24.48
2018-04-08T00:55:56.690Z,16.65
2018-04-08T00:57:04.319Z,40.20
2018-04-08T00:58:11.008Z,16.12
2018-04-08T00:59:17.588Z,12.43
2018-04-08T01:00:23.799Z,15.52
2018-04-08T01:01:31.164Z,17.30
2018-04-08T01:02:37.601Z,15.52
2018-04-08T01:03:45.232Z,23.65
2018-04-08T01:04:51.899Z,21.87
2018-04-08T01:05:58.036Z,17.87
2018-04-08T01:07:04.474Z,20.48
2018-04-08T01:08:11.779Z,18.30
2018-04-08T01:09:17.992Z,16.70
2018-04-08T01:10:25.131Z,14.73
2018-04-08T01:11:33.405Z,15.10
2018-04-08T01:12:41.606Z,22.20
2018-04-08T01:13:47.755Z,25.25
2018-04-08T01:14:54.057Z,12.20
2018-04-08T01:16:00.332Z,12.60
2018-04-08T01:17:06.613Z,11.70
2018-04-08T01:18:14.811Z,10.55
2018-04-08T01:19:22.437Z,11.65
2018-04-08T01:20:28.909Z,10.63
2018-04-08T01:21:35.224Z,14.93
2018-04-08T01:22:42.202Z,10.15
2018-04-08T01:23:50.723Z,9.38
2018-04-08T01:24:57.513Z,11.68
2018-04-08T01:26:03.583Z,11.82
2018-04-08T01:27:09.409Z,9.00
2018-04-08T01:28:15.504Z,10.52
2018-04-08T01:29:23.692Z,9.82
2018-04-08T01:30:30.242Z,8.63
2018-04-08T01:31:37.706Z,9.50
2018-04-08T01:32:43.460Z,8.60
2018-04-08T01:33:49.349Z,9.38
2018-04-08T01:34:55.484Z,8.75
2018-04-08T01:36:01.546Z,10.45
2018-04-08T01:37:09.382Z,9.10
2018-04-08T01:38:15.850Z,9.60
2018-04-08T01:39:22.032Z,9.57
2018-04-08T01:40:27.533Z,10.07
2018-04-08T01:41:34.330Z,32.03
2018-04-08T01:42:40.657Z,19.37
2018-04-08T01:43:46.791Z,11.50
2018-04-08T01:44:55.672Z,11.10
2018-04-08T01:46:03.991Z,23.15
2018-04-08T01:47:10.270Z,18.90
2018-04-08T01:48:17.650Z,11.53
2018-04-08T01:49:23.703Z,12.25
2018-04-08T01:50:29.840Z,8.60
2018-04-08T01:51:35.602Z,10.57
2018-04-08T01:52:42.033Z,17.10
2018-04-08T01:53:47.875Z,9.97
2018-04-08T01:54:53.530Z,9.18
2018-04-08T01:56:00.821Z,8.40
2018-04-08T01:57:07.066Z,15.57
2018-04-08T01:58:14.160Z,15.73
2018-04-08T01:59:20.941Z,8.38
2018-04-08T02:00:28.759Z,8.07
2018-04-08T02:01:37.558Z,7.90
2018-04-08T02:02:44.466Z,7.60
2018-04-08T02:03:50.180Z,7.80
2018-04-08T02:04:55.856Z,7.95
2018-04-08T02:06:02.400Z,7.60
2018-04-08T02:07:08.178Z,8.55
2018-04-08T02:08:14.691Z,7.43
2018-04-08T02:09:20.303Z,7.97
2018-04-08T02:10:25.929Z,7.72
2018-04-08T02:11:31.531Z,7.60
2018-04-08T02:12:38.076Z,7.70
2018-04-08T02:13:44.599Z,7.60
2018-04-08T02:14:51.450Z,7.80
2018-04-08T02:15:57.067Z,7.60
2018-04-08T02:17:03.873Z,7.25
2018-04-08T02:18:11.222Z,7.37
2018-04-08T02:19:17.122Z,6.93
2018-04-08T02:20:22.770Z,9.18
2018-04-08T02:21:28.416Z,17.67
2018-04-08T02:22:34.141Z,11.50
2018-04-08T02:23:39.790Z,11.27
2018-04-08T02:24:45.358Z,10.32
2018-04-08T02:25:51.193Z,13.55
2018-04-08T02:26:57.131Z,13.85
2018-04-08T02:28:03.578Z,10.73
2018-04-08T02:29:10.641Z,9.80
2018-04-08T02:30:16.488Z,8.90
2018-04-08T02:31:22.462Z,8.50
2018-04-08T02:32:28.333Z,9.25
2018-04-08T02:33:34.513Z,9.52
2018-04-08T02:34:40.149Z,8.63
2018-04-08T02:35:47.479Z,8.38
2018-04-08T02:36:53.012Z,8.50
2018-04-08T02:37:58.581Z,8.18
2018-04-08T02:39:04.374Z,7.70
2018-04-08T02:40:10.042Z,8.45
2018-04-08T02:41:15.755Z,8.02
2018-04-08T02:42:21.273Z,8.23
2018-04-08T02:43:26.756Z,7.80
2018-04-08T02:44:32.631Z,7.90
2018-04-08T02:45:40.071Z,9.77
2018-04-08T02:46:45.652Z,11.02
2018-04-08T02:47:52.294Z,13.98
2018-04-08T02:49:01.016Z,11.57
2018-04-08T02:50:07.544Z,12.40
2018-04-08T02:51:13.065Z,12.30
2018-04-08T02:52:18.624Z,12.13
2018-04-08T02:53:24.432Z,13.00
2018-04-08T02:54:31.711Z,11.20
2018-04-08T02:55:38.044Z,10.00
2018-04-08T02:56:43.570Z,10.93
2018-04-08T02:57:49.911Z,11.25
2018-04-08T02:58:57.756Z,10.10
2018-04-08T03:00:03.455Z,9.75
2018-04-08T03:01:10.731Z,9.68
2018-04-08T03:02:16.603Z,10.00
2018-04-08T03:03:22.331Z,9.20
2018-04-08T03:04:28.239Z,9.93
2018-04-08T03:05:34.361Z,10.52
2018-04-08T03:06:39.884Z,10.27
2018-04-08T03:07:45.411Z,11.27
2018-04-08T03:08:52.472Z,10.55
2018-04-08T03:09:58.909Z,10.30
2018-04-08T03:11:04.624Z,10.85
2018-04-08T03:12:10.116Z,9.50
2018-04-08T03:13:16.474Z,8.05
2018-04-08T03:14:22.134Z,9.20
2018-04-08T03:15:28.514Z,7.78
2018-04-08T03:16:34.138Z,7.80
2018-04-08T03:17:39.817Z,8.90
2018-04-08T03:18:45.895Z,8.25
2018-04-08T03:19:52.305Z,8.07
2018-04-08T03:20:57.768Z,7.20
2018-04-08T03:22:04.110Z,7.65
2018-04-08T03:23:09.529Z,7.78
2018-04-08T03:24:15.190Z,7.82
2018-04-08T03:25:20.762Z,7.82
2018-04-08T03:26:26.411Z,7.80
2018-04-08T03:27:32.785Z,8.52
2018-04-08T03:28:39.023Z,8.55
2018-04-08T03:29:44.486Z,16.90
2018-04-08T03:30:49.992Z,16.40
2018-04-08T03:31:56.836Z,12.35
2018-04-08T03:33:03.369Z,9.80
2018-04-08T03:34:09.056Z,12.77
2018-04-08T03:35:14.482Z,12.75
2018-04-08T03:36:20.228Z,13.98
2018-04-08T03:37:25.650Z,10.80
2018-04-08T03:38:31.675Z,11.00
2018-04-08T03:39:37.135Z,10.73
2018-04-08T03:40:42.547Z,8.82
2018-04-08T03:41:48.010Z,8.30
2018-04-08T03:42:53.462Z,8.52
2018-04-08T03:43:58.874Z,7.05
2018-04-08T03:45:04.391Z,7.75
2018-04-08T03:46:09.887Z,8.70
2018-04-08T03:47:22.396Z,8.32
2018-04-08T03:48:28.900Z,8.10
2018-04-08T03:49:38.205Z,7.60
2018-04-08T03:50:44.512Z,7.68
2018-04-08T03:51:50.262Z,8.32
2018-04-08T03:52:55.795Z,9.82
2018-04-08T03:54:01.336Z,9.60
2018-04-08T03:55:06.764Z,8.57
2018-04-08T03:56:14.009Z,24.65
2018-04-08T03:57:19.696Z,47.35
2018-04-08T03:58:25.697Z,28.92
2018-04-08T03:59:32.703Z,15.10
2018-04-08T04:00:38.473Z,12.75
2018-04-08T04:01:45.178Z,12.15
2018-04-08T04:02:51.852Z,12.52
2018-04-08T04:03:57.713Z,11.27
2018-04-08T04:05:03.293Z,12.40
2018-04-08T04:06:09.028Z,11.07
2018-04-08T04:07:15.065Z,9.15
2018-04-08T04:08:20.661Z,7.85
2018-04-08T04:09:26.614Z,8.00
2018-04-08T04:10:33.304Z,8.63
2018-04-08T04:11:39.668Z,8.50
2018-04-08T04:12:45.221Z,8.18
2018-04-08T04:13:50.984Z,8.50
2018-04-08T04:14:56.729Z,8.40
2018-04-08T04:16:03.471Z,8.65
2018-04-08T04:17:09.606Z,8.43
2018-04-08T04:18:21.223Z,9.20
2018-04-08T04:19:33.056Z,7.70
2018-04-08T04:20:45.554Z,7.82
2018-04-08T04:21:56.356Z,8.37
2018-04-08T04:23:07.210Z,8.40
2018-04-08T04:24:20.001Z,8.95
2018-04-08T04:25:30.136Z,8.55
2018-04-08T04:26:36.694Z,8.57
2018-04-08T04:27:42.209Z,8.02
2018-04-08T04:28:47.705Z,8.20
2018-04-08T04:29:54.510Z,20.75
2018-04-08T04:31:00.042Z,14.07
2018-04-08T04:32:07.339Z,10.15
2018-04-08T04:33:12.824Z,14.20
2018-04-08T04:34:18.390Z,12.70
2018-04-08T04:35:23.996Z,9.85
2018-04-08T04:36:29.611Z,10.13
2018-04-08T04:37:35.837Z,10.00
2018-04-08T04:38:41.244Z,10.25
2018-04-08T04:39:46.671Z,8.87
2018-04-08T04:40:52.277Z,7.55
2018-04-08T04:41:57.732Z,7.80
2018-04-08T04:43:03.188Z,8.10
2018-04-08T04:44:08.862Z,8.10
2018-04-08T04:45:14.805Z,8.70
2018-04-08T04:46:20.915Z,8.48
2018-04-08T04:47:26.329Z,9.15
2018-04-08T04:48:31.798Z,8.93
2018-04-08T04:49:38.403Z,10.50
2018-04-08T04:50:45.066Z,11.95
2018-04-08T04:51:51.862Z,11.43
2018-04-08T04:52:57.255Z,14.60
2018-04-08T04:54:02.836Z,15.23
2018-04-08T04:55:09.167Z,10.98
2018-04-08T04:56:14.758Z,12.63
2018-04-08T04:57:20.298Z,12.02
2018-04-08T04:58:25.686Z,9.50
2018-04-08T04:59:31.409Z,9.57
2018-04-08T05:00:36.981Z,12.77
2018-04-08T05:01:42.465Z,11.45
2018-04-08T05:02:48.403Z,11.85
2018-04-08T05:03:54.673Z,10.93
2018-04-08T05:05:00.523Z,10.43
2018-04-08T05:06:06.750Z,8.68
2018-04-08T05:07:12.292Z,7.93
2018-04-08T05:08:18.085Z,8.10
2018-04-08T05:09:24.282Z,8.52
2018-04-08T05:10:30.815Z,9.07
2018-04-08T05:11:36.219Z,8.93
2018-04-08T05:12:41.741Z,8.63
2018-04-08T05:13:47.786Z,9.00
2018-04-08T05:14:53.467Z,8.02
2018-04-08T05:15:59.309Z,8.02
2018-04-08T05:17:04.861Z,7.45
2018-04-08T05:18:11.229Z,7.62
2018-04-08T05:19:17.578Z,7.97
2018-04-08T05:20:23.236Z,8.50
2018-04-08T05:21:29.697Z,8.18
2018-04-08T05:22:35.182Z,8.02
2018-04-08T05:23:40.765Z,8.32
2018-04-08T05:24:46.180Z,8.63
2018-04-08T05:25:51.694Z,7.75
2018-04-08T05:26:57.356Z,8.63
2018-04-08T05:28:03.004Z,7.55
2018-04-08T05:29:08.446Z,8.43
2018-04-08T05:30:13.887Z,9.55
2018-04-08T05:31:19.319Z,7.97
2018-04-08T05:32:25.097Z,7.90
2018-04-08T05:33:31.916Z,11.57
2018-04-08T05:34:37.439Z,50.78
2018-04-08T05:35:43.063Z,33.55
2018-04-08T05:36:49.113Z,16.20
2018-04-08T05:37:55.829Z,11.60
2018-04-08T05:39:02.058Z,11.30
2018-04-08T05:40:07.668Z,11.05
2018-04-08T05:41:13.316Z,8.90
2018-04-08T05:42:19.129Z,8.50
2018-04-08T05:43:25.057Z,9.38
2018-04-08T05:44:34.749Z,9.40
2018-04-08T05:45:42.109Z,9.85
2018-04-08T05:46:48.145Z,8.70
2018-04-08T05:47:55.890Z,9.10
2018-04-08T05:49:03.873Z,10.00
2018-04-08T05:50:10.931Z,9.50
2018-04-08T05:51:16.974Z,9.80
2018-04-08T05:52:23.650Z,10.48
2018-04-08T05:53:29.104Z,8.80
2018-04-08T05:56:45.374Z,8.15
2018-04-08T05:57:51.055Z,7.50
2018-04-08T05:58:59.261Z,7.87
2018-04-08T06:00:06.980Z,7.80
2018-04-08T06:01:15.033Z,7.90
2018-04-08T06:02:22.861Z,7.10
2018-04-08T06:03:28.720Z,7.93
2018-04-08T06:04:35.911Z,25.10
2018-04-08T06:05:41.837Z,22.50
2018-04-08T06:06:48.358Z,14.07
2018-04-08T06:07:54.664Z,13.20
2018-04-08T06:09:01.398Z,14.07
2018-04-08T06:10:07.793Z,9.82
2018-04-08T06:11:15.161Z,10.20
2018-04-08T06:12:22.668Z,11.50
2018-04-08T06:13:28.731Z,10.10
2018-04-08T06:14:35.043Z,8.60
2018-04-08T06:15:41.966Z,9.40
2018-04-08T06:16:48.765Z,8.57
2018-04-08T06:17:54.701Z,9.35
2018-04-08T06:19:03.643Z,10.03
2018-04-08T06:20:11.786Z,9.80
2018-04-08T06:21:19.514Z,9.75
2018-04-08T06:22:26.788Z,8.90
2018-04-08T06:23:37.659Z,11.15
2018-04-08T06:24:46.113Z,10.00
2018-04-08T06:25:55.097Z,8.68
2018-04-08T06:27:02.171Z,8.77
2018-04-08T06:28:10.543Z,8.13
2018-04-08T06:29:17.312Z,8.80
2018-04-08T06:30:30.186Z,10.88
2018-04-08T06:31:37.475Z,11.90
2018-04-08T06:32:44.216Z,10.00
2018-04-08T06:33:51.770Z,9.23
2018-04-08T06:34:58.865Z,10.35
2018-04-08T06:36:07.651Z,9.20
2018-04-08T06:37:14.954Z,9.00
2018-04-08T06:38:25.686Z,9.57
2018-04-08T06:39:36.685Z,9.60
2018-04-08T06:40:44.918Z,9.60
2018-04-08T06:41:57.453Z,9.65
2018-04-08T06:43:06.097Z,7.90
2018-04-08T06:44:13.376Z,8.77
2018-04-08T06:45:22.548Z,8.40
2018-04-08T06:46:32.017Z,8.48
2018-04-08T06:47:40.545Z,8.13
2018-04-08T06:48:47.857Z,14.25
2018-04-08T06:49:56.310Z,9.30
2018-04-08T06:51:03.978Z,8.93
2018-04-08T06:52:12.113Z,8.60
2018-04-08T06:53:19.039Z,8.93
2018-04-08T06:54:26.941Z,8.73
2018-04-08T06:55:35.002Z,8.20
2018-04-08T06:56:44.563Z,9.98
2018-04-08T06:57:52.907Z,13.32
2018-04-08T06:59:00.626Z,10.45
2018-04-08T07:00:08.144Z,11.57
2018-04-08T07:01:17.769Z,13.88
2018-04-08T07:02:25.828Z,12.70
2018-04-08T07:03:33.379Z,15.60
2018-04-08T07:04:41.720Z,13.40
2018-04-08T07:05:50.151Z,10.63
2018-04-08T07:06:57.493Z,11.00
2018-04-08T07:08:06.471Z,11.25
2018-04-08T07:09:14.225Z,8.70
2018-04-08T07:10:24.376Z,10.15
2018-04-08T07:11:32.111Z,12.33
2018-04-08T07:12:42.027Z,10.40
2018-04-08T07:13:48.387Z,10.65
2018-04-08T07:14:55.974Z,8.70
2018-04-08T07:16:04.568Z,10.15
2018-04-08T07:17:11.085Z,8.73
2018-04-08T07:18:17.422Z,9.15
2018-04-08T07:19:23.769Z,9.20
2018-04-08T07:20:31.164Z,8.85
2018-04-08T07:21:38.013Z,9.18
2018-04-08T07:22:46.646Z,8.85
2018-04-08T07:23:54.429Z,9.30
2018-04-08T07:25:03.371Z,9.70
2018-04-08T07:26:10.708Z,8.10
2018-04-08T07:27:17.036Z,8.70
2018-04-08T07:28:23.364Z,8.90
2018-04-08T07:29:31.321Z,9.18
2018-04-08T07:30:37.819Z,9.20
2018-04-08T07:31:44.720Z,8.57
2018-04-08T07:32:51.232Z,8.90
2018-04-08T07:33:59.243Z,17.20
2018-04-08T07:35:08.492Z,15.23
2018-04-08T07:36:16.291Z,11.43
2018-04-08T07:37:25.190Z,9.48
2018-04-08T07:38:32.617Z,8.67
2018-04-08T07:39:39.369Z,9.05
2018-04-08T07:40:46.252Z,8.50
2018-04-08T07:41:52.721Z,9.68
2018-04-08T07:43:00.424Z,9.27
2018-04-08T07:44:08.750Z,8.82
2018-04-08T07:45:16.898Z,8.50
2018-04-08T07:46:23.706Z,8.43
2018-04-08T07:47:31.430Z,8.00
2018-04-08T07:48:38.123Z,9.00
2018-04-08T07:49:45.824Z,8.55
2018-04-08T07:50:53.449Z,8.68
2018-04-08T07:52:00.700Z,8.68
2018-04-08T07:53:11.898Z,8.10
2018-04-08T07:54:19.437Z,8.55
2018-04-08T07:55:26.151Z,8.75
2018-04-08T07:56:32.503Z,8.27
2018-04-08T07:57:39.234Z,8.23
2018-04-08T07:58:47.044Z,8.50
2018-04-08T07:59:55.873Z,9.00
2018-04-08T08:01:05.717Z,9.25
2018-04-08T08:02:13.027Z,8.93
2018-04-08T08:03:21.307Z,8.70
2018-04-08T08:04:28.256Z,9.60
2018-04-08T08:05:40.127Z,9.25
2018-04-08T08:06:46.555Z,8.77
2018-04-08T08:07:54.328Z,9.70
2018-04-08T08:09:00.566Z,17.45
2018-04-08T08:10:08.550Z,12.50
2018-04-08T08:11:14.764Z,10.93
2018-04-08T08:12:23.704Z,13.15
2018-04-08T08:13:30.042Z,10.40
2018-04-08T08:14:37.772Z,9.35
2018-04-08T08:15:45.217Z,8.50
2018-04-08T08:16:52.154Z,9.17
2018-04-08T08:17:58.443Z,9.45
2018-04-08T08:19:05.087Z,9.40
2018-04-08T08:20:11.349Z,9.07
2018-04-08T08:21:18.121Z,8.95
2018-04-08T08:22:25.631Z,8.50
2018-04-08T08:23:32.699Z,9.35
2018-04-08T08:24:38.914Z,9.40
2018-04-08T08:25:47.956Z,8.67
2018-04-08T08:26:54.706Z,8.45
2018-04-08T08:28:01.902Z,9.13
2018-04-08T08:29:08.565Z,8.80
2018-04-08T08:30:15.357Z,9.68
2018-04-08T08:31:23.550Z,8.63
2018-04-08T08:32:29.847Z,8.93
2018-04-08T08:33:36.825Z,9.23
2018-04-08T08:34:43.945Z,8.93
2018-04-08T08:35:50.081Z,9.02
2018-04-08T08:36:59.088Z,8.43
2018-04-08T08:38:07.172Z,8.90
2018-04-08T08:39:13.800Z,9.00
2018-04-08T08:40:20.611Z,9.05
2018-04-08T08:41:27.990Z,9.25
2018-04-08T08:42:36.488Z,12.90
2018-04-08T08:43:43.313Z,13.43
2018-04-08T08:44:49.989Z,144.87
2018-04-08T08:45:56.938Z,326.37
2018-04-08T08:47:05.720Z,605.70
2018-04-08T08:48:12.728Z,472.15
2018-04-08T08:49:19.711Z,244.30
2018-04-08T08:50:26.883Z,50.70
2018-04-08T08:51:37.632Z,115.50
2018-04-08T08:52:44.206Z,80.93
2018-04-08T08:53:50.474Z,117.27
2018-04-08T08:54:57.563Z,77.75
2018-04-08T08:56:04.471Z,77.53
2018-04-08T08:57:10.818Z,34.38
2018-04-08T08:58:18.744Z,58.05
2018-04-08T08:59:28.321Z,59.35
2018-04-08T09:00:36.512Z,61.83
2018-04-08T09:01:43.913Z,44.28
2018-04-08T09:02:51.657Z,32.88
2018-04-08T09:04:00.051Z,34.30
2018-04-08T09:05:06.074Z,31.40
2018-04-08T09:06:14.456Z,27.23
2018-04-08T09:07:21.867Z,27.13
2018-04-08T09:08:28.094Z,26.80
2018-04-08T09:09:35.208Z,20.70
2018-04-08T09:10:42.922Z,14.50
2018-04-08T09:11:50.539Z,17.37
2018-04-08T09:12:58.309Z,18.17
2018-04-08T09:14:04.743Z,12.13
2018-04-08T09:15:12.514Z,11.93
2018-04-08T09:16:18.642Z,10.85
2018-04-08T09:17:25.613Z,11.10
2018-04-08T09:18:32.817Z,10.65
2018-04-08T09:19:39.172Z,9.73
2018-04-08T09:20:47.247Z,10.90
2018-04-08T09:21:56.147Z,11.65
2018-04-08T09:23:04.251Z,17.52
2018-04-08T09:24:10.612Z,14.80
2018-04-08T09:25:17.905Z,14.27
2018-04-08T09:26:27.057Z,13.20
2018-04-08T09:27:33.835Z,17.23
2018-04-08T09:28:40.126Z,17.33
2018-04-08T09:29:46.980Z,19.00
2018-04-08T09:30:56.754Z,14.15
2018-04-08T09:32:03.702Z,15.37
2018-04-08T09:33:11.184Z,12.15
2018-04-08T09:34:18.017Z,12.80
2018-04-08T09:35:24.288Z,13.77
2018-04-08T09:36:30.507Z,11.20
2018-04-08T09:37:40.181Z,14.70
2018-04-08T09:38:46.316Z,14.55
2018-04-08T09:39:53.844Z,13.37
2018-04-08T09:41:01.830Z,14.52
2018-04-08T09:42:08.323Z,12.80
2018-04-08T09:43:14.727Z,12.43
2018-04-08T09:44:20.498Z,22.62
2018-04-08T09:45:26.538Z,13.13
2018-04-08T09:46:33.941Z,14.18
2018-04-08T09:47:40.337Z,11.87
2018-04-08T09:48:46.951Z,12.45
2018-04-08T09:49:53.334Z,12.13
2018-04-08T09:50:58.646Z,16.42
2018-04-08T09:52:03.412Z,13.10
2018-04-08T09:53:08.225Z,11.30
2018-04-08T09:54:14.551Z,12.15
2018-04-08T09:55:21.287Z,11.80
2018-04-08T09:56:36.074Z,11.55
2018-04-08T09:57:41.807Z,10.85
2018-04-08T09:58:46.822Z,26.98
2018-04-08T09:59:53.058Z,13.70
2018-04-08T10:01:02.944Z,11.63
2018-04-08T10:02:11.199Z,11.90
2018-04-08T10:03:23.839Z,15.18
2018-04-08T10:04:31.318Z,13.30
2018-04-08T10:05:37.771Z,12.25
2018-04-08T10:06:44.936Z,11.90
2018-04-08T10:07:51.238Z,11.73
2018-04-08T10:08:57.717Z,12.02
2018-04-08T10:10:05.546Z,39.72
2018-04-08T10:11:10.953Z,47.17
2018-04-08T10:12:18.488Z,62.08
2018-04-08T10:13:24.259Z,188.20
2018-04-08T10:14:32.350Z,33.15
2018-04-08T10:15:39.421Z,24.67
2018-04-08T10:16:45.179Z,43.40
2018-04-08T10:17:50.884Z,35.13
2018-04-08T10:18:56.229Z,18.85
2018-04-08T10:20:02.903Z,14.90
2018-04-08T10:21:09.890Z,16.48
2018-04-08T10:22:16.472Z,13.55
2018-04-08T10:23:22.712Z,39.78
2018-04-08T10:24:27.570Z,24.25
2018-04-08T10:25:34.540Z,14.77
2018-04-08T10:26:39.411Z,15.20
2018-04-08T10:27:45.577Z,15.45
2018-04-08T10:28:51.344Z,15.45
2018-04-08T10:29:56.256Z,14.70
2018-04-08T10:31:01.715Z,12.75
2018-04-08T10:32:09.127Z,13.60
2018-04-08T10:33:17.727Z,13.45
2018-04-08T10:34:24.083Z,13.90
2018-04-08T10:35:32.518Z,14.63
2018-04-08T10:36:38.992Z,14.10
2018-04-08T10:37:45.503Z,15.45
2018-04-08T10:38:50.572Z,15.45
2018-04-08T10:39:57.432Z,14.20
2018-04-08T10:41:02.769Z,13.80
2018-04-08T10:42:07.719Z,13.82
2018-04-08T10:43:13.545Z,14.40
2018-04-08T10:44:18.436Z,15.25
2018-04-08T10:45:23.901Z,14.38
2018-04-08T10:46:29.585Z,14.80
2018-04-08T10:47:35.639Z,15.55
2018-04-08T10:49:16.846Z,15.43
2018-04-08T10:50:24.356Z,160.27
2018-04-08T10:51:30.081Z,39.45
2018-04-08T10:52:36.163Z,45.97
2018-04-08T10:53:43.025Z,24.65
2018-04-08T10:54:49.082Z,19.65
2018-04-08T10:55:55.262Z,19.45
2018-04-08T10:57:02.867Z,18.60
2018-04-08T10:58:10.338Z,19.75
2018-04-08T10:59:15.424Z,18.33
2018-04-08T11:00:20.560Z,17.30
2018-04-08T11:01:26.785Z,19.33
2018-04-08T11:02:32.867Z,20.60
2018-04-08T11:03:39.200Z,22.70
2018-04-08T11:04:44.395Z,21.30
2018-04-08T11:05:49.428Z,38.58
2018-04-08T11:06:54.689Z,19.15
2018-04-08T11:08:00.734Z,18.15
2018-04-08T11:09:06.997Z,17.15
2018-04-08T11:10:13.600Z,17.77
2018-04-08T11:11:20.527Z,16.80
2018-04-08T11:12:27.675Z,17.83
2018-04-08T11:13:34.659Z,17.30
2018-04-08T11:14:39.845Z,16.83
2018-04-08T11:15:46.466Z,17.33
2018-04-08T11:16:54.714Z,15.60
2018-04-08T11:18:00.493Z,18.20
2018-04-08T11:19:06.269Z,18.58
2018-04-08T11:20:12.201Z,17.10
2018-04-08T11:21:19.467Z,17.05
2018-04-08T11:22:27.581Z,17.12
2018-04-08T11:23:32.897Z,18.23
2018-04-08T11:24:38.961Z,17.48
2018-04-08T11:25:44.571Z,17.77
2018-04-08T11:26:50.455Z,17.30
2018-04-08T11:27:57.799Z,17.15
2018-04-08T11:29:04.967Z,17.87
2018-04-08T11:30:10.860Z,17.45
2018-04-08T11:31:20.506Z,18.23
2018-04-08T11:32:28.754Z,18.55
2018-04-08T11:33:36.338Z,16.73
2018-04-08T11:34:43.101Z,18.23
2018-04-08T11:35:49.904Z,17.85
2018-04-08T11:36:57.557Z,17.98
2018-04-08T11:38:04.157Z,17.83
2018-04-08T11:39:09.380Z,17.75
2018-04-08T11:40:17.478Z,17.80
2018-04-08T11:41:25.242Z,18.05
2018-04-08T11:42:32.054Z,18.50
2018-04-08T11:43:38.025Z,17.25
2018-04-08T11:44:44.512Z,17.90
2018-04-08T11:45:50.739Z,18.23
2018-04-08T11:46:57.729Z,17.23
2018-04-08T11:48:03.593Z,17.17
2018-04-08T11:49:09.199Z,16.67
2018-04-08T11:50:15.883Z,18.35
2018-04-08T11:51:21.866Z,17.20
2018-04-08T11:52:28.835Z,17.75
2018-04-08T11:53:35.390Z,18.08
2018-04-08T11:54:41.980Z,20.08
2018-04-08T11:55:47.638Z,19.08
2018-04-08T11:56:54.541Z,20.00
2018-04-08T11:58:00.787Z,22.25
2018-04-08T11:59:06.552Z,21.17
2018-04-08T12:00:11.949Z,18.52
2018-04-08T12:01:17.194Z,20.37
2018-04-08T12:02:25.504Z,25.75
2018-04-08T12:03:31.217Z,21.33
2018-04-08T12:04:49.646Z,20.17
2018-04-08T12:05:55.544Z,21.95
2018-04-08T12:07:03.246Z,22.35
2018-04-08T12:08:08.834Z,120.68
2018-04-08T12:09:13.879Z,31.42
2018-04-08T12:10:23.386Z,31.48
2018-04-08T12:11:28.600Z,25.42
2018-04-08T12:12:34.663Z,19.37
2018-04-08T12:13:40.642Z,21.50
2018-04-08T12:14:46.127Z,21.05
2018-04-08T12:15:53.810Z,19.55
2018-04-08T12:17:03.088Z,23.70
2018-04-08T12:18:09.413Z,21.10
2018-04-08T12:19:15.858Z,22.33
2018-04-08T12:20:23.045Z,36.53
2018-04-08T12:21:28.702Z,21.83
2018-04-08T12:22:37.724Z,19.52
2018-04-08T12:23:45.686Z,21.15
2018-04-08T12:24:52.133Z,19.00
2018-04-08T12:25:58.960Z,20.98
2018-04-08T12:27:04.785Z,21.58
2018-04-08T12:28:10.162Z,21.10
2018-04-08T12:29:16.184Z,21.12
2018-04-08T12:30:21.558Z,21.00
2018-04-08T12:31:27.507Z,20.30
2018-04-08T12:32:34.738Z,19.48
2018-04-08T12:33:40.758Z,17.60
2018-04-08T12:34:46.445Z,19.00
2018-04-08T12:35:56.577Z,18.60
2018-04-08T12:37:06.881Z,18.20
2018-04-08T12:38:12.539Z,17.85
2018-04-08T12:39:17.670Z,19.33
2018-04-08T12:40:23.349Z,18.62
2018-04-08T12:41:28.416Z,18.02
2018-04-08T12:42:34.047Z,16.95
2018-04-08T12:43:40.120Z,14.68
2018-04-08T12:44:45.243Z,14.50
2018-04-08T12:45:50.414Z,13.57
2018-04-08T12:46:59.621Z,14.90
2018-04-08T12:48:06.614Z,16.35
2018-04-08T12:49:11.949Z,14.73
2018-04-08T12:50:17.279Z,14.37
2018-04-08T12:51:26.421Z,14.10
2018-04-08T12:52:32.301Z,15.73
2018-04-08T12:53:40.260Z,19.80
2018-04-08T12:54:48.035Z,12.98
2018-04-08T12:55:54.543Z,27.20
2018-04-08T12:56:59.560Z,26.58
2018-04-08T12:58:08.097Z,13.60
2018-04-08T12:59:13.978Z,15.18
2018-04-08T13:00:19.187Z,17.90
2018-04-08T13:01:24.251Z,16.50
2018-04-08T13:02:30.343Z,14.90
2018-04-08T13:03:36.295Z,17.08
2018-04-08T13:04:43.973Z,16.02
2018-04-08T13:05:52.292Z,13.43
2018-04-08T13:06:57.725Z,12.48
2018-04-08T13:08:03.484Z,13.20
2018-04-08T13:09:09.017Z,12.95
2018-04-08T13:10:14.946Z,10.32
2018-04-08T13:11:22.919Z,10.85
2018-04-08T13:12:30.185Z,12.18
2018-04-08T13:13:36.794Z,9.98
2018-04-08T13:14:41.932Z,10.13
2018-04-08T13:15:51.407Z,10.23
2018-04-08T13:16:58.405Z,10.83
2018-04-08T13:18:03.793Z,9.70
2018-04-08T13:19:10.692Z,103.65
2018-04-08T13:20:16.740Z,108.82
2018-04-08T13:21:22.885Z,340.00
2018-04-08T13:22:33.069Z,27.58
2018-04-08T13:23:41.085Z,31.90
2018-04-08T13:24:48.400Z,17.02
2018-04-08T13:25:56.018Z,34.45
2018-04-08T13:27:01.092Z,61.92
2018-04-08T13:28:07.411Z,24.83
2018-04-08T13:29:13.202Z,17.70
2018-04-08T13:30:18.603Z,10.88
2018-04-08T13:31:26.740Z,9.00
2018-04-08T13:32:40.549Z,9.32
2018-04-08T13:33:49.322Z,9.10
2018-04-08T13:34:56.444Z,10.02
2018-04-08T13:36:03.362Z,9.73
2018-04-08T13:37:08.453Z,9.48
2018-04-08T13:38:14.427Z,9.65
2018-04-08T13:39:20.377Z,9.50
2018-04-08T13:40:26.831Z,8.35
2018-04-08T13:41:36.494Z,10.82
2018-04-08T13:42:41.457Z,11.85
2018-04-08T13:43:47.610Z,12.27
2018-04-08T13:44:55.025Z,9.90
2018-04-08T13:46:00.843Z,10.18
2018-04-08T13:47:06.391Z,10.20
2018-04-08T13:48:11.786Z,9.10
2018-04-08T13:49:19.582Z,12.57
2018-04-08T13:50:31.608Z,9.90
2018-04-08T13:51:38.859Z,9.20
2018-04-08T13:52:44.850Z,8.85
2018-04-08T13:53:51.174Z,13.57
2018-04-08T13:55:00.434Z,19.52
2018-04-08T13:56:08.584Z,10.70
2018-04-08T13:57:15.024Z,9.38
2018-04-08T13:58:22.192Z,10.82
2018-04-08T13:59:29.507Z,9.20
2018-04-08T14:00:36.591Z,9.98
2018-04-08T14:01:46.601Z,8.80
2018-04-08T14:02:54.720Z,9.02
2018-04-08T14:04:01.164Z,8.93
2018-04-08T14:05:07.124Z,8.80
2018-04-08T14:06:14.950Z,8.30
2018-04-08T14:07:21.982Z,9.00
2018-04-08T14:08:30.484Z,8.95
2018-04-08T14:09:38.402Z,8.43
2018-04-08T14:10:44.721Z,8.82
2018-04-08T14:11:52.926Z,8.88
2018-04-08T14:12:59.513Z,9.25
2018-04-08T14:14:06.413Z,9.60
2018-04-08T14:15:11.590Z,10.07
2018-04-08T14:16:19.011Z,9.52
2018-04-08T14:17:26.499Z,9.43
2018-04-08T14:18:35.843Z,9.15
2018-04-08T14:19:45.199Z,9.00
2018-04-08T14:20:55.169Z,8.63
2018-04-08T14:22:02.381Z,8.63
2018-04-08T14:23:08.052Z,9.07
2018-04-08T14:24:16.178Z,8.13
2018-04-08T14:25:22.826Z,9.00
2018-04-08T14:26:29.606Z,9.50
2018-04-08T14:27:37.049Z,8.18
2018-04-08T14:28:43.812Z,9.57
2018-04-08T14:29:50.107Z,8.43
2018-04-08T14:30:58.752Z,8.43
2018-04-08T14:32:04.972Z,8.77
2018-04-08T14:33:11.598Z,8.43
2018-04-08T14:34:18.419Z,8.55